sensor_id;sensor_type;location;lat;lon;timestamp;P1;durP1;ratioP1;P2;durP2;ratioP2
24619;SDS011;12763;55.802;37.404;2024-01-30T00:00:11;10.63;;;5.15;;
24619;SDS011;12763;55.802;37.404;2024-01-30T00:02:37;10.93;;;4.22;;
24619;SDS011;12763;55.802;37.404;2024-01-30T00:05:03;14.65;;;6.30;;
24619;SDS011;12763;55.802;37.404;2024-01-30T00:07:30;14.63;;;5.93;;
24619;SDS011;12763;55.802;37.404;2024-01-30T00:09:56;12.57;;;5.90;;
24619;SDS011;12763;55.802;37.404;2024-01-30T00:12:22;8.00;;;4.85;;
24619;SDS011;12763;55.802;37.404;2024-01-30T00:14:48;11.13;;;5.93;;
24619;SDS011;12763;55.802;37.404;2024-01-30T00:17:14;12.00;;;5.95;;
24619;SDS011;12763;55.802;37.404;2024-01-30T00:19:40;13.45;;;5.40;;
24619;SDS011;12763;55.802;37.404;2024-01-30T00:22:06;16.83;;;5.97;;
24619;SDS011;12763;55.802;37.404;2024-01-30T00:24:33;11.93;;;5.88;;
24619;SDS011;12763;55.802;37.404;2024-01-30T00:26:59;12.88;;;5.88;;
24619;SDS011;12763;55.802;37.404;2024-01-30T00:29:25;10.13;;;5.05;;
24619;SDS011;12763;55.802;37.404;2024-01-30T00:31:56;13.70;;;5.43;;
24619;SDS011;12763;55.802;37.404;2024-01-30T00:34:22;11.65;;;5.40;;
24619;SDS011;12763;55.802;37.404;2024-01-30T00:36:48;10.23;;;5.35;;
24619;SDS011;12763;55.802;37.404;2024-01-30T00:39:14;12.70;;;5.70;;
24619;SDS011;12763;55.802;37.404;2024-01-30T00:41:41;11.45;;;5.28;;
24619;SDS011;12763;55.802;37.404;2024-01-30T00:44:07;15.05;;;5.75;;
24619;SDS011;12763;55.802;37.404;2024-01-30T00:46:33;12.68;;;5.72;;
24619;SDS011;12763;55.802;37.404;2024-01-30T00:48:59;12.10;;;5.65;;
24619;SDS011;12763;55.802;37.404;2024-01-30T00:51:24;10.55;;;4.55;;
24619;SDS011;12763;55.802;37.404;2024-01-30T00:53:50;10.02;;;5.65;;
24619;SDS011;12763;55.802;37.404;2024-01-30T00:56:16;13.13;;;5.97;;
24619;SDS011;12763;55.802;37.404;2024-01-30T00:58:44;14.30;;;4.85;;
24619;SDS011;12763;55.802;37.404;2024-01-30T01:01:09;9.63;;;4.95;;
24619;SDS011;12763;55.802;37.404;2024-01-30T01:03:35;11.98;;;5.47;;
24619;SDS011;12763;55.802;37.404;2024-01-30T01:06:01;13.23;;;5.38;;
24619;SDS011;12763;55.802;37.404;2024-01-30T01:08:27;11.57;;;6.22;;
24619;SDS011;12763;55.802;37.404;2024-01-30T01:10:53;16.95;;;6.25;;
24619;SDS011;12763;55.802;37.404;2024-01-30T01:13:19;16.13;;;6.43;;
24619;SDS011;12763;55.802;37.404;2024-01-30T01:15:45;10.70;;;5.65;;
24619;SDS011;12763;55.802;37.404;2024-01-30T01:18:11;12.82;;;5.45;;
24619;SDS011;12763;55.802;37.404;2024-01-30T01:20:37;14.40;;;6.45;;
24619;SDS011;12763;55.802;37.404;2024-01-30T01:23:03;14.05;;;6.18;;
24619;SDS011;12763;55.802;37.404;2024-01-30T01:25:29;12.27;;;6.30;;
24619;SDS011;12763;55.802;37.404;2024-01-30T01:27:55;11.68;;;5.95;;
24619;SDS011;12763;55.802;37.404;2024-01-30T01:30:21;12.45;;;5.38;;
24619;SDS011;12763;55.802;37.404;2024-01-30T01:32:50;16.90;;;5.82;;
24619;SDS011;12763;55.802;37.404;2024-01-30T01:35:23;12.45;;;6.00;;
24619;SDS011;12763;55.802;37.404;2024-01-30T01:37:53;10.57;;;5.00;;
24619;SDS011;12763;55.802;37.404;2024-01-30T01:40:25;15.10;;;6.80;;
24619;SDS011;12763;55.802;37.404;2024-01-30T01:42:53;12.32;;;6.50;;
24619;SDS011;12763;55.802;37.404;2024-01-30T01:45:20;12.30;;;5.55;;
24619;SDS011;12763;55.802;37.404;2024-01-30T01:47:47;14.35;;;5.85;;
24619;SDS011;12763;55.802;37.404;2024-01-30T01:50:16;17.77;;;6.78;;
24619;SDS011;12763;55.802;37.404;2024-01-30T01:52:45;12.13;;;5.55;;
24619;SDS011;12763;55.802;37.404;2024-01-30T01:55:16;17.55;;;5.90;;
24619;SDS011;12763;55.802;37.404;2024-01-30T01:57:47;11.20;;;5.65;;
24619;SDS011;12763;55.802;37.404;2024-01-30T02:00:13;14.13;;;6.35;;
24619;SDS011;12763;55.802;37.404;2024-01-30T02:02:39;13.20;;;6.43;;
24619;SDS011;12763;55.802;37.404;2024-01-30T02:05:07;19.42;;;6.95;;
24619;SDS011;12763;55.802;37.404;2024-01-30T02:07:34;14.95;;;6.68;;
24619;SDS011;12763;55.802;37.404;2024-01-30T02:10:00;13.70;;;6.32;;
24619;SDS011;12763;55.802;37.404;2024-01-30T02:12:25;15.02;;;6.55;;
24619;SDS011;12763;55.802;37.404;2024-01-30T02:14:52;12.05;;;5.13;;
24619;SDS011;12763;55.802;37.404;2024-01-30T02:17:20;15.23;;;7.10;;
24619;SDS011;12763;55.802;37.404;2024-01-30T02:19:46;11.50;;;5.80;;
24619;SDS011;12763;55.802;37.404;2024-01-30T02:22:12;13.05;;;5.97;;
24619;SDS011;12763;55.802;37.404;2024-01-30T02:24:38;14.43;;;5.57;;
24619;SDS011;12763;55.802;37.404;2024-01-30T02:27:04;12.07;;;6.07;;
24619;SDS011;12763;55.802;37.404;2024-01-30T02:29:30;13.93;;;6.57;;
24619;SDS011;12763;55.802;37.404;2024-01-30T02:31:56;13.35;;;5.82;;
24619;SDS011;12763;55.802;37.404;2024-01-30T02:34:23;11.57;;;5.93;;
24619;SDS011;12763;55.802;37.404;2024-01-30T02:36:49;8.25;;;5.20;;
24619;SDS011;12763;55.802;37.404;2024-01-30T02:39:15;13.27;;;7.45;;
24619;SDS011;12763;55.802;37.404;2024-01-30T02:41:40;12.65;;;6.00;;
24619;SDS011;12763;55.802;37.404;2024-01-30T02:44:06;14.40;;;6.97;;
24619;SDS011;12763;55.802;37.404;2024-01-30T02:46:32;12.60;;;6.88;;
24619;SDS011;12763;55.802;37.404;2024-01-30T02:48:58;14.75;;;5.63;;
24619;SDS011;12763;55.802;37.404;2024-01-30T02:51:24;9.60;;;5.00;;
24619;SDS011;12763;55.802;37.404;2024-01-30T02:53:50;12.27;;;6.10;;
24619;SDS011;12763;55.802;37.404;2024-01-30T02:56:16;11.60;;;5.90;;
24619;SDS011;12763;55.802;37.404;2024-01-30T02:58:42;11.35;;;6.07;;
24619;SDS011;12763;55.802;37.404;2024-01-30T03:01:08;11.30;;;5.75;;
24619;SDS011;12763;55.802;37.404;2024-01-30T03:03:34;12.98;;;6.28;;
24619;SDS011;12763;55.802;37.404;2024-01-30T03:06:01;11.85;;;5.65;;
24619;SDS011;12763;55.802;37.404;2024-01-30T03:08:28;14.55;;;5.93;;
24619;SDS011;12763;55.802;37.404;2024-01-30T03:10:54;11.73;;;4.82;;
24619;SDS011;12763;55.802;37.404;2024-01-30T03:13:21;12.57;;;5.57;;
24619;SDS011;12763;55.802;37.404;2024-01-30T03:15:49;12.23;;;5.95;;
24619;SDS011;12763;55.802;37.404;2024-01-30T03:18:15;18.13;;;6.75;;
24619;SDS011;12763;55.802;37.404;2024-01-30T03:20:41;18.42;;;6.53;;
24619;SDS011;12763;55.802;37.404;2024-01-30T03:23:07;14.82;;;6.13;;
24619;SDS011;12763;55.802;37.404;2024-01-30T03:25:33;13.45;;;5.25;;
24619;SDS011;12763;55.802;37.404;2024-01-30T03:27:59;15.35;;;5.97;;
24619;SDS011;12763;55.802;37.404;2024-01-30T03:30:25;15.30;;;5.40;;
24619;SDS011;12763;55.802;37.404;2024-01-30T03:32:51;16.00;;;5.90;;
24619;SDS011;12763;55.802;37.404;2024-01-30T03:35:18;11.57;;;6.65;;
24619;SDS011;12763;55.802;37.404;2024-01-30T03:37:44;10.95;;;5.43;;
24619;SDS011;12763;55.802;37.404;2024-01-30T03:40:10;9.48;;;4.35;;
24619;SDS011;12763;55.802;37.404;2024-01-30T03:42:37;11.60;;;5.45;;
24619;SDS011;12763;55.802;37.404;2024-01-30T03:45:03;13.27;;;5.53;;
24619;SDS011;12763;55.802;37.404;2024-01-30T03:47:30;10.32;;;5.53;;
24619;SDS011;12763;55.802;37.404;2024-01-30T03:49:56;12.38;;;5.72;;
24619;SDS011;12763;55.802;37.404;2024-01-30T03:52:22;13.13;;;5.10;;
24619;SDS011;12763;55.802;37.404;2024-01-30T03:54:48;15.50;;;6.18;;
24619;SDS011;12763;55.802;37.404;2024-01-30T03:57:14;11.50;;;5.20;;
24619;SDS011;12763;55.802;37.404;2024-01-30T03:59:43;12.85;;;5.22;;
24619;SDS011;12763;55.802;37.404;2024-01-30T04:02:12;13.88;;;6.03;;
24619;SDS011;12763;55.802;37.404;2024-01-30T04:04:38;12.55;;;5.30;;
24619;SDS011;12763;55.802;37.404;2024-01-30T04:07:04;12.55;;;6.50;;
24619;SDS011;12763;55.802;37.404;2024-01-30T04:09:30;12.02;;;6.18;;
24619;SDS011;12763;55.802;37.404;2024-01-30T04:11:58;15.43;;;6.85;;
24619;SDS011;12763;55.802;37.404;2024-01-30T04:14:24;15.88;;;7.07;;
24619;SDS011;12763;55.802;37.404;2024-01-30T04:16:50;13.85;;;5.60;;
24619;SDS011;12763;55.802;37.404;2024-01-30T04:19:16;12.38;;;5.70;;
24619;SDS011;12763;55.802;37.404;2024-01-30T04:21:42;10.85;;;5.35;;
24619;SDS011;12763;55.802;37.404;2024-01-30T04:24:08;14.13;;;6.22;;
24619;SDS011;12763;55.802;37.404;2024-01-30T04:26:33;18.50;;;6.88;;
24619;SDS011;12763;55.802;37.404;2024-01-30T04:28:59;12.48;;;6.30;;
24619;SDS011;12763;55.802;37.404;2024-01-30T04:31:25;15.25;;;6.40;;
24619;SDS011;12763;55.802;37.404;2024-01-30T04:33:51;16.45;;;6.82;;
24619;SDS011;12763;55.802;37.404;2024-01-30T04:36:17;17.20;;;7.07;;
24619;SDS011;12763;55.802;37.404;2024-01-30T04:38:43;15.50;;;7.22;;
24619;SDS011;12763;55.802;37.404;2024-01-30T04:41:09;15.80;;;6.07;;
24619;SDS011;12763;55.802;37.404;2024-01-30T04:43:36;15.13;;;6.65;;
24619;SDS011;12763;55.802;37.404;2024-01-30T04:46:01;16.33;;;6.43;;
24619;SDS011;12763;55.802;37.404;2024-01-30T04:48:27;16.42;;;6.13;;
24619;SDS011;12763;55.802;37.404;2024-01-30T04:50:53;12.05;;;6.07;;
24619;SDS011;12763;55.802;37.404;2024-01-30T04:53:19;13.20;;;6.65;;
24619;SDS011;12763;55.802;37.404;2024-01-30T04:55:45;12.73;;;6.60;;
24619;SDS011;12763;55.802;37.404;2024-01-30T04:58:11;15.85;;;7.05;;
24619;SDS011;12763;55.802;37.404;2024-01-30T05:00:37;18.35;;;7.80;;
24619;SDS011;12763;55.802;37.404;2024-01-30T05:03:03;15.75;;;6.82;;
24619;SDS011;12763;55.802;37.404;2024-01-30T05:05:29;14.85;;;6.75;;
24619;SDS011;12763;55.802;37.404;2024-01-30T05:07:55;17.23;;;7.30;;
24619;SDS011;12763;55.802;37.404;2024-01-30T05:10:21;15.38;;;7.00;;
24619;SDS011;12763;55.802;37.404;2024-01-30T05:12:47;18.65;;;7.70;;
24619;SDS011;12763;55.802;37.404;2024-01-30T05:15:13;15.32;;;6.10;;
24619;SDS011;12763;55.802;37.404;2024-01-30T05:17:39;14.80;;;6.95;;
24619;SDS011;12763;55.802;37.404;2024-01-30T05:20:05;16.15;;;7.63;;
24619;SDS011;12763;55.802;37.404;2024-01-30T05:22:31;16.23;;;6.70;;
24619;SDS011;12763;55.802;37.404;2024-01-30T05:24:57;12.50;;;5.75;;
24619;SDS011;12763;55.802;37.404;2024-01-30T05:27:23;15.15;;;7.15;;
24619;SDS011;12763;55.802;37.404;2024-01-30T05:29:49;13.88;;;6.88;;
24619;SDS011;12763;55.802;37.404;2024-01-30T05:32:15;18.88;;;7.05;;
24619;SDS011;12763;55.802;37.404;2024-01-30T05:34:41;18.38;;;7.50;;
24619;SDS011;12763;55.802;37.404;2024-01-30T05:37:07;15.13;;;6.90;;
24619;SDS011;12763;55.802;37.404;2024-01-30T05:39:33;16.75;;;7.82;;
24619;SDS011;12763;55.802;37.404;2024-01-30T05:41:59;15.13;;;6.05;;
24619;SDS011;12763;55.802;37.404;2024-01-30T05:44:25;18.50;;;7.10;;
24619;SDS011;12763;55.802;37.404;2024-01-30T05:46:51;18.33;;;7.32;;
24619;SDS011;12763;55.802;37.404;2024-01-30T05:49:17;16.75;;;7.50;;
24619;SDS011;12763;55.802;37.404;2024-01-30T05:51:42;17.13;;;7.88;;
24619;SDS011;12763;55.802;37.404;2024-01-30T05:54:08;17.13;;;6.90;;
24619;SDS011;12763;55.802;37.404;2024-01-30T05:56:34;21.17;;;7.72;;
24619;SDS011;12763;55.802;37.404;2024-01-30T05:59:00;14.88;;;6.88;;
24619;SDS011;12763;55.802;37.404;2024-01-30T06:01:26;15.95;;;6.80;;
24619;SDS011;12763;55.802;37.404;2024-01-30T06:03:52;21.92;;;7.63;;
24619;SDS011;12763;55.802;37.404;2024-01-30T06:06:18;19.10;;;7.03;;
24619;SDS011;12763;55.802;37.404;2024-01-30T06:08:43;16.08;;;7.20;;
24619;SDS011;12763;55.802;37.404;2024-01-30T06:11:10;14.07;;;7.32;;
24619;SDS011;12763;55.802;37.404;2024-01-30T06:13:37;19.80;;;8.45;;
24619;SDS011;12763;55.802;37.404;2024-01-30T06:16:03;19.45;;;7.80;;
24619;SDS011;12763;55.802;37.404;2024-01-30T06:18:29;20.75;;;9.60;;
24619;SDS011;12763;55.802;37.404;2024-01-30T06:20:56;20.88;;;8.55;;
24619;SDS011;12763;55.802;37.404;2024-01-30T06:23:22;17.00;;;6.40;;
24619;SDS011;12763;55.802;37.404;2024-01-30T06:25:48;15.20;;;7.90;;
24619;SDS011;12763;55.802;37.404;2024-01-30T06:28:14;22.60;;;7.90;;
24619;SDS011;12763;55.802;37.404;2024-01-30T06:30:40;20.30;;;7.75;;
24619;SDS011;12763;55.802;37.404;2024-01-30T06:33:06;19.70;;;7.60;;
24619;SDS011;12763;55.802;37.404;2024-01-30T06:35:32;19.60;;;7.72;;
24619;SDS011;12763;55.802;37.404;2024-01-30T06:37:58;18.92;;;7.25;;
24619;SDS011;12763;55.802;37.404;2024-01-30T06:40:24;20.52;;;9.48;;
24619;SDS011;12763;55.802;37.404;2024-01-30T06:42:50;18.33;;;7.30;;
24619;SDS011;12763;55.802;37.404;2024-01-30T06:45:16;24.38;;;8.80;;
24619;SDS011;12763;55.802;37.404;2024-01-30T06:47:41;20.95;;;8.15;;
24619;SDS011;12763;55.802;37.404;2024-01-30T06:50:08;16.85;;;7.72;;
24619;SDS011;12763;55.802;37.404;2024-01-30T06:52:34;21.58;;;8.00;;
24619;SDS011;12763;55.802;37.404;2024-01-30T06:55:00;18.73;;;8.80;;
24619;SDS011;12763;55.802;37.404;2024-01-30T06:57:29;21.52;;;8.68;;
24619;SDS011;12763;55.802;37.404;2024-01-30T06:59:56;21.42;;;8.75;;
24619;SDS011;12763;55.802;37.404;2024-01-30T07:02:21;18.15;;;8.45;;
24619;SDS011;12763;55.802;37.404;2024-01-30T07:04:47;25.65;;;9.25;;
24619;SDS011;12763;55.802;37.404;2024-01-30T07:07:14;22.98;;;8.70;;
24619;SDS011;12763;55.802;37.404;2024-01-30T07:09:41;20.90;;;8.68;;
24619;SDS011;12763;55.802;37.404;2024-01-30T07:12:07;19.23;;;8.73;;
24619;SDS011;12763;55.802;37.404;2024-01-30T07:14:33;18.48;;;7.90;;
24619;SDS011;12763;55.802;37.404;2024-01-30T07:16:59;19.13;;;9.30;;
24619;SDS011;12763;55.802;37.404;2024-01-30T07:19:25;22.73;;;9.20;;
24619;SDS011;12763;55.802;37.404;2024-01-30T07:21:51;18.35;;;8.77;;
24619;SDS011;12763;55.802;37.404;2024-01-30T07:24:17;21.83;;;7.43;;
24619;SDS011;12763;55.802;37.404;2024-01-30T07:26:43;19.90;;;7.85;;
24619;SDS011;12763;55.802;37.404;2024-01-30T07:29:09;18.33;;;8.32;;
24619;SDS011;12763;55.802;37.404;2024-01-30T07:31:35;23.08;;;8.43;;
24619;SDS011;12763;55.802;37.404;2024-01-30T07:34:01;17.15;;;8.05;;
24619;SDS011;12763;55.802;37.404;2024-01-30T07:36:27;22.63;;;8.15;;
24619;SDS011;12763;55.802;37.404;2024-01-30T07:38:53;18.35;;;8.40;;
24619;SDS011;12763;55.802;37.404;2024-01-30T07:41:20;25.70;;;10.25;;
24619;SDS011;12763;55.802;37.404;2024-01-30T07:43:46;18.05;;;8.15;;
24619;SDS011;12763;55.802;37.404;2024-01-30T07:46:12;20.45;;;8.57;;
24619;SDS011;12763;55.802;37.404;2024-01-30T07:48:57;22.37;;;8.80;;
24619;SDS011;12763;55.802;37.404;2024-01-30T07:51:24;22.20;;;8.65;;
24619;SDS011;12763;55.802;37.404;2024-01-30T07:54:14;31.92;;;9.05;;
24619;SDS011;12763;55.802;37.404;2024-01-30T07:56:40;19.83;;;7.47;;
24619;SDS011;12763;55.802;37.404;2024-01-30T07:59:10;19.42;;;9.13;;
24619;SDS011;12763;55.802;37.404;2024-01-30T08:01:37;22.63;;;8.85;;
24619;SDS011;12763;55.802;37.404;2024-01-30T08:04:03;21.17;;;9.55;;
24619;SDS011;12763;55.802;37.404;2024-01-30T08:06:29;19.85;;;9.02;;
24619;SDS011;12763;55.802;37.404;2024-01-30T08:08:55;21.95;;;9.13;;
24619;SDS011;12763;55.802;37.404;2024-01-30T08:11:22;26.42;;;10.43;;
24619;SDS011;12763;55.802;37.404;2024-01-30T08:13:52;21.63;;;9.32;;
24619;SDS011;12763;55.802;37.404;2024-01-30T08:16:18;21.83;;;8.10;;
24619;SDS011;12763;55.802;37.404;2024-01-30T08:18:44;21.85;;;7.93;;
24619;SDS011;12763;55.802;37.404;2024-01-30T08:21:10;19.15;;;8.75;;
24619;SDS011;12763;55.802;37.404;2024-01-30T08:23:37;28.08;;;9.88;;
24619;SDS011;12763;55.802;37.404;2024-01-30T08:26:05;24.48;;;10.32;;
24619;SDS011;12763;55.802;37.404;2024-01-30T08:31:17;28.48;;;9.57;;
24619;SDS011;12763;55.802;37.404;2024-01-30T08:33:43;20.85;;;8.25;;
24619;SDS011;12763;55.802;37.404;2024-01-30T08:36:09;23.73;;;8.60;;
24619;SDS011;12763;55.802;37.404;2024-01-30T08:38:34;20.17;;;9.82;;
24619;SDS011;12763;55.802;37.404;2024-01-30T08:41:00;21.35;;;7.97;;
24619;SDS011;12763;55.802;37.404;2024-01-30T08:43:26;25.17;;;9.00;;
24619;SDS011;12763;55.802;37.404;2024-01-30T08:45:52;24.38;;;9.07;;
24619;SDS011;12763;55.802;37.404;2024-01-30T08:48:18;21.33;;;9.15;;
24619;SDS011;12763;55.802;37.404;2024-01-30T08:50:44;22.38;;;8.70;;
24619;SDS011;12763;55.802;37.404;2024-01-30T08:53:10;18.00;;;7.97;;
24619;SDS011;12763;55.802;37.404;2024-01-30T08:55:36;23.17;;;9.38;;
24619;SDS011;12763;55.802;37.404;2024-01-30T08:58:02;18.15;;;8.80;;
24619;SDS011;12763;55.802;37.404;2024-01-30T09:00:30;17.98;;;8.98;;
24619;SDS011;12763;55.802;37.404;2024-01-30T09:02:56;27.08;;;9.90;;
24619;SDS011;12763;55.802;37.404;2024-01-30T09:05:22;20.20;;;7.82;;
24619;SDS011;12763;55.802;37.404;2024-01-30T09:07:48;27.35;;;8.93;;
24619;SDS011;12763;55.802;37.404;2024-01-30T09:10:14;22.83;;;9.35;;
24619;SDS011;12763;55.802;37.404;2024-01-30T09:12:40;25.52;;;8.80;;
24619;SDS011;12763;55.802;37.404;2024-01-30T09:15:06;27.58;;;8.98;;
24619;SDS011;12763;55.802;37.404;2024-01-30T09:17:32;26.05;;;9.82;;
24619;SDS011;12763;55.802;37.404;2024-01-30T09:19:58;21.27;;;8.95;;
24619;SDS011;12763;55.802;37.404;2024-01-30T09:22:24;23.70;;;9.20;;
24619;SDS011;12763;55.802;37.404;2024-01-30T09:24:51;20.38;;;9.05;;
24619;SDS011;12763;55.802;37.404;2024-01-30T09:27:16;21.48;;;9.43;;
24619;SDS011;12763;55.802;37.404;2024-01-30T09:29:42;18.75;;;7.88;;
24619;SDS011;12763;55.802;37.404;2024-01-30T09:32:08;17.58;;;8.25;;
24619;SDS011;12763;55.802;37.404;2024-01-30T09:34:34;29.40;;;10.20;;
24619;SDS011;12763;55.802;37.404;2024-01-30T09:37:00;25.92;;;10.13;;
24619;SDS011;12763;55.802;37.404;2024-01-30T09:39:26;22.00;;;8.88;;
24619;SDS011;12763;55.802;37.404;2024-01-30T09:42:11;19.10;;;8.68;;
24619;SDS011;12763;55.802;37.404;2024-01-30T09:44:58;21.95;;;8.57;;
24619;SDS011;12763;55.802;37.404;2024-01-30T09:47:24;25.98;;;8.45;;
24619;SDS011;12763;55.802;37.404;2024-01-30T09:49:50;19.20;;;8.95;;
24619;SDS011;12763;55.802;37.404;2024-01-30T09:52:16;20.73;;;8.98;;
24619;SDS011;12763;55.802;37.404;2024-01-30T09:54:44;23.42;;;9.57;;
24619;SDS011;12763;55.802;37.404;2024-01-30T09:57:11;22.38;;;9.20;;
24619;SDS011;12763;55.802;37.404;2024-01-30T09:59:37;18.70;;;9.00;;
24619;SDS011;12763;55.802;37.404;2024-01-30T10:02:03;25.65;;;9.57;;
24619;SDS011;12763;55.802;37.404;2024-01-30T10:04:30;25.10;;;9.35;;
24619;SDS011;12763;55.802;37.404;2024-01-30T10:06:56;17.42;;;7.75;;
24619;SDS011;12763;55.802;37.404;2024-01-30T10:09:24;20.30;;;9.18;;
24619;SDS011;12763;55.802;37.404;2024-01-30T10:11:51;19.05;;;9.20;;
24619;SDS011;12763;55.802;37.404;2024-01-30T10:14:17;22.60;;;9.60;;
24619;SDS011;12763;55.802;37.404;2024-01-30T10:16:42;17.98;;;7.88;;
24619;SDS011;12763;55.802;37.404;2024-01-30T10:19:11;20.27;;;8.90;;
24619;SDS011;12763;55.802;37.404;2024-01-30T10:21:37;23.52;;;9.23;;
24619;SDS011;12763;55.802;37.404;2024-01-30T10:24:03;29.08;;;8.77;;
24619;SDS011;12763;55.802;37.404;2024-01-30T10:26:29;24.65;;;9.35;;
24619;SDS011;12763;55.802;37.404;2024-01-30T10:28:59;22.48;;;9.35;;
24619;SDS011;12763;55.802;37.404;2024-01-30T10:31:25;24.38;;;8.60;;
24619;SDS011;12763;55.802;37.404;2024-01-30T10:33:51;21.35;;;8.73;;
24619;SDS011;12763;55.802;37.404;2024-01-30T10:36:17;23.73;;;9.15;;
24619;SDS011;12763;55.802;37.404;2024-01-30T10:38:44;22.45;;;9.32;;
24619;SDS011;12763;55.802;37.404;2024-01-30T10:41:13;30.23;;;11.30;;
24619;SDS011;12763;55.802;37.404;2024-01-30T10:43:45;18.05;;;8.27;;
24619;SDS011;12763;55.802;37.404;2024-01-30T10:46:22;20.20;;;8.52;;
24619;SDS011;12763;55.802;37.404;2024-01-30T10:48:57;23.00;;;8.77;;
24619;SDS011;12763;55.802;37.404;2024-01-30T10:51:27;26.30;;;9.82;;
24619;SDS011;12763;55.802;37.404;2024-01-30T10:54:03;21.85;;;9.27;;
24619;SDS011;12763;55.802;37.404;2024-01-30T10:57:08;21.60;;;8.18;;
24619;SDS011;12763;55.802;37.404;2024-01-30T10:59:58;21.10;;;9.30;;
24619;SDS011;12763;55.802;37.404;2024-01-30T11:02:26;19.40;;;8.02;;
24619;SDS011;12763;55.802;37.404;2024-01-30T11:04:57;18.52;;;8.75;;
24619;SDS011;12763;55.802;37.404;2024-01-30T11:07:24;15.20;;;7.18;;
24619;SDS011;12763;55.802;37.404;2024-01-30T11:09:53;22.55;;;8.93;;
24619;SDS011;12763;55.802;37.404;2024-01-30T11:12:46;20.77;;;8.88;;
24619;SDS011;12763;55.802;37.404;2024-01-30T11:15:21;21.63;;;9.10;;
24619;SDS011;12763;55.802;37.404;2024-01-30T11:20:26;20.08;;;9.30;;
24619;SDS011;12763;55.802;37.404;2024-01-30T11:22:56;29.55;;;9.98;;
24619;SDS011;12763;55.802;37.404;2024-01-30T11:25:23;21.17;;;8.65;;
24619;SDS011;12763;55.802;37.404;2024-01-30T11:27:50;18.67;;;8.43;;
24619;SDS011;12763;55.802;37.404;2024-01-30T11:30:25;25.15;;;9.07;;
24619;SDS011;12763;55.802;37.404;2024-01-30T11:33:03;22.10;;;10.50;;
24619;SDS011;12763;55.802;37.404;2024-01-30T11:35:41;24.27;;;10.68;;
24619;SDS011;12763;55.802;37.404;2024-01-30T11:38:09;26.88;;;11.93;;
24619;SDS011;12763;55.802;37.404;2024-01-30T11:40:37;25.48;;;10.68;;
24619;SDS011;12763;55.802;37.404;2024-01-30T11:43:05;26.65;;;10.18;;
24619;SDS011;12763;55.802;37.404;2024-01-30T11:45:51;22.40;;;10.43;;
24619;SDS011;12763;55.802;37.404;2024-01-30T11:48:17;24.33;;;10.43;;
24619;SDS011;12763;55.802;37.404;2024-01-30T11:50:44;20.50;;;10.77;;
24619;SDS011;12763;55.802;37.404;2024-01-30T11:53:10;25.23;;;11.45;;
24619;SDS011;12763;55.802;37.404;2024-01-30T11:55:36;22.95;;;9.52;;
24619;SDS011;12763;55.802;37.404;2024-01-30T11:58:03;22.67;;;9.80;;
24619;SDS011;12763;55.802;37.404;2024-01-30T12:00:30;23.73;;;10.00;;
24619;SDS011;12763;55.802;37.404;2024-01-30T12:02:59;19.58;;;8.13;;
24619;SDS011;12763;55.802;37.404;2024-01-30T12:05:26;22.10;;;9.73;;
24619;SDS011;12763;55.802;37.404;2024-01-30T12:07:53;26.30;;;9.55;;
24619;SDS011;12763;55.802;37.404;2024-01-30T12:10:20;21.95;;;10.00;;
24619;SDS011;12763;55.802;37.404;2024-01-30T12:12:47;23.33;;;9.50;;
24619;SDS011;12763;55.802;37.404;2024-01-30T12:15:15;21.90;;;8.48;;
24619;SDS011;12763;55.802;37.404;2024-01-30T12:17:42;22.63;;;9.20;;
24619;SDS011;12763;55.802;37.404;2024-01-30T12:20:09;26.67;;;8.32;;
24619;SDS011;12763;55.802;37.404;2024-01-30T12:22:40;21.50;;;8.25;;
24619;SDS011;12763;55.802;37.404;2024-01-30T12:25:10;19.15;;;9.32;;
24619;SDS011;12763;55.802;37.404;2024-01-30T12:27:37;18.23;;;9.20;;
24619;SDS011;12763;55.802;37.404;2024-01-30T12:30:07;28.33;;;11.52;;
24619;SDS011;12763;55.802;37.404;2024-01-30T12:33:04;22.67;;;9.50;;
24619;SDS011;12763;55.802;37.404;2024-01-30T12:36:03;30.88;;;9.68;;
24619;SDS011;12763;55.802;37.404;2024-01-30T12:38:30;19.48;;;8.32;;
24619;SDS011;12763;55.802;37.404;2024-01-30T12:40:56;24.85;;;9.38;;
24619;SDS011;12763;55.802;37.404;2024-01-30T12:43:22;23.30;;;9.98;;
24619;SDS011;12763;55.802;37.404;2024-01-30T12:45:52;22.92;;;9.73;;
24619;SDS011;12763;55.802;37.404;2024-01-30T12:48:18;27.60;;;10.63;;
24619;SDS011;12763;55.802;37.404;2024-01-30T12:51:04;27.52;;;10.75;;
24619;SDS011;12763;55.802;37.404;2024-01-30T12:53:30;21.45;;;9.50;;
24619;SDS011;12763;55.802;37.404;2024-01-30T12:55:56;17.92;;;8.88;;
24619;SDS011;12763;55.802;37.404;2024-01-30T12:58:23;24.77;;;9.90;;
24619;SDS011;12763;55.802;37.404;2024-01-30T13:00:49;25.17;;;9.85;;
24619;SDS011;12763;55.802;37.404;2024-01-30T13:03:15;22.30;;;10.52;;
24619;SDS011;12763;55.802;37.404;2024-01-30T13:05:41;21.17;;;9.43;;
24619;SDS011;12763;55.802;37.404;2024-01-30T13:08:08;21.00;;;9.73;;
24619;SDS011;12763;55.802;37.404;2024-01-30T13:10:34;26.35;;;10.60;;
24619;SDS011;12763;55.802;37.404;2024-01-30T13:13:00;21.85;;;9.13;;
24619;SDS011;12763;55.802;37.404;2024-01-30T13:15:26;25.75;;;10.27;;
24619;SDS011;12763;55.802;37.404;2024-01-30T13:17:52;30.63;;;9.98;;
24619;SDS011;12763;55.802;37.404;2024-01-30T13:20:20;26.77;;;11.32;;
24619;SDS011;12763;55.802;37.404;2024-01-30T13:22:49;26.65;;;9.68;;
24619;SDS011;12763;55.802;37.404;2024-01-30T13:25:16;29.90;;;10.75;;
24619;SDS011;12763;55.802;37.404;2024-01-30T13:27:43;22.48;;;10.13;;
24619;SDS011;12763;55.802;37.404;2024-01-30T13:30:10;22.88;;;10.02;;
24619;SDS011;12763;55.802;37.404;2024-01-30T13:32:37;25.52;;;10.60;;
24619;SDS011;12763;55.802;37.404;2024-01-30T13:35:03;26.23;;;10.73;;
24619;SDS011;12763;55.802;37.404;2024-01-30T13:37:31;21.10;;;9.13;;
24619;SDS011;12763;55.802;37.404;2024-01-30T13:39:57;25.33;;;10.30;;
24619;SDS011;12763;55.802;37.404;2024-01-30T13:42:23;17.65;;;8.82;;
24619;SDS011;12763;55.802;37.404;2024-01-30T13:44:49;25.30;;;10.70;;
24619;SDS011;12763;55.802;37.404;2024-01-30T13:47:16;21.98;;;10.20;;
24619;SDS011;12763;55.802;37.404;2024-01-30T13:49:44;31.65;;;11.93;;
24619;SDS011;12763;55.802;37.404;2024-01-30T13:52:10;22.42;;;8.93;;
24619;SDS011;12763;55.802;37.404;2024-01-30T13:54:36;24.27;;;10.68;;
24619;SDS011;12763;55.802;37.404;2024-01-30T13:57:02;32.25;;;11.43;;
24619;SDS011;12763;55.802;37.404;2024-01-30T13:59:28;25.95;;;10.52;;
24619;SDS011;12763;55.802;37.404;2024-01-30T14:01:54;25.65;;;9.50;;
24619;SDS011;12763;55.802;37.404;2024-01-30T14:04:20;27.27;;;10.07;;
24619;SDS011;12763;55.802;37.404;2024-01-30T14:06:46;25.02;;;11.35;;
24619;SDS011;12763;55.802;37.404;2024-01-30T14:09:12;26.15;;;10.43;;
24619;SDS011;12763;55.802;37.404;2024-01-30T14:11:41;25.63;;;9.88;;
24619;SDS011;12763;55.802;37.404;2024-01-30T14:14:09;28.35;;;11.10;;
24619;SDS011;12763;55.802;37.404;2024-01-30T14:16:35;26.95;;;10.25;;
24619;SDS011;12763;55.802;37.404;2024-01-30T14:19:01;23.65;;;8.90;;
24619;SDS011;12763;55.802;37.404;2024-01-30T14:21:28;29.30;;;10.85;;
24619;SDS011;12763;55.802;37.404;2024-01-30T14:23:53;25.65;;;9.75;;
24619;SDS011;12763;55.802;37.404;2024-01-30T14:26:20;24.17;;;10.20;;